createdAt,value
2018-12-20T00:04:00.000Z,-0.5
2018-12-20T00:09:00.000Z,-0.6
2018-12-20T00:14:00.000Z,-0.6
2018-12-20T00:19:00.000Z,-0.6
2018-12-20T00:24:00.000Z,-0.7
2018-12-20T00:29:00.000Z,-0.7
2018-12-20T00:34:00.000Z,-0.8
2018-12-20T00:39:00.000Z,-0.8
2018-12-20T00:44:00.000Z,-0.8
2018-12-20T00:49:00.000Z,-0.9
2018-12-20T00:54:00.000Z,-0.9
2018-12-20T00:59:00.000Z,-0.9
2018-12-20T01:04:00.000Z,-0.9
2018-12-20T01:09:00.000Z,-0.9
2018-12-20T01:14:00.000Z,-0.9
2018-12-20T01:19:00.000Z,-0.9
2018-12-20T01:24:00.000Z,-0.9
2018-12-20T01:29:00.000Z,-0.8
2018-12-20T01:34:00.000Z,-0.8
2018-12-20T01:39:00.000Z,-0.8
2018-12-20T01:44:00.000Z,-0.8
2018-12-20T01:49:00.000Z,-0.8
2018-12-20T01:54:00.000Z,-0.8
2018-12-20T01:59:00.000Z,-0.8
2018-12-20T02:04:00.000Z,-0.8
2018-12-20T02:09:00.000Z,-0.8
2018-12-20T02:14:00.000Z,-0.8
2018-12-20T02:20:00.000Z,-0.8
2018-12-20T02:25:00.000Z,-0.9
2018-12-20T02:30:00.000Z,-0.9
2018-12-20T02:35:00.000Z,-0.8
2018-12-20T02:40:00.000Z,-0.8
2018-12-20T02:45:00.000Z,-0.8
2018-12-20T02:50:00.000Z,-0.7
2018-12-20T02:55:00.000Z,-0.7
2018-12-20T03:00:00.000Z,-0.7
2018-12-20T03:05:00.000Z,-0.6
2018-12-20T03:10:00.000Z,-0.6
2018-12-20T03:15:00.000Z,-0.6
2018-12-20T03:20:00.000Z,-0.6
2018-12-20T03:25:00.000Z,-0.6
2018-12-20T03:30:00.000Z,-0.7
2018-12-20T03:35:00.000Z,-0.7
2018-12-20T03:40:00.000Z,-0.6
2018-12-20T03:45:00.000Z,-0.7
2018-12-20T03:50:00.000Z,-0.7
2018-12-20T03:55:00.000Z,-0.8
2018-12-20T04:00:00.000Z,-0.7
2018-12-20T04:05:00.000Z,-0.7
2018-12-20T04:10:00.000Z,-0.7
2018-12-20T04:15:00.000Z,-0.7
2018-12-20T04:20:00.000Z,-0.7
2018-12-20T04:25:00.000Z,-0.7
2018-12-20T04:30:00.000Z,-0.7
2018-12-20T04:35:00.000Z,-0.7
2018-12-20T04:40:00.000Z,-0.6
2018-12-20T04:45:00.000Z,-0.5
2018-12-20T04:50:00.000Z,-0.5
2018-12-20T04:55:00.000Z,-0.4
2018-12-20T05:00:00.000Z,-0.4
2018-12-20T05:05:00.000Z,-0.5
2018-12-20T05:10:00.000Z,-0.6
2018-12-20T05:15:00.000Z,-0.6
2018-12-20T05:20:00.000Z,-0.5
2018-12-20T05:25:00.000Z,-0.4
2018-12-20T05:30:00.000Z,-0.4
2018-12-20T05:36:00.000Z,-0.3
2018-12-20T05:41:00.000Z,-0.3
2018-12-20T05:46:00.000Z,-0.3
2018-12-20T05:51:00.000Z,-0.2
2018-12-20T05:56:00.000Z,-0.3
2018-12-20T06:01:00.000Z,-0.2
2018-12-20T06:06:00.000Z,-0.3
2018-12-20T06:11:00.000Z,-0.4
2018-12-20T06:16:00.000Z,-0.4
2018-12-20T06:21:00.000Z,-0.3
2018-12-20T06:26:00.000Z,-0.2
2018-12-20T06:31:00.000Z,-0.2
2018-12-20T06:36:00.000Z,-0.2
2018-12-20T06:41:00.000Z,-0.3
2018-12-20T06:46:00.000Z,-0.4
2018-12-20T06:51:00.000Z,-0.5
2018-12-20T06:56:00.000Z,-0.5
2018-12-20T07:01:00.000Z,-0.6
2018-12-20T07:06:00.000Z,-0.5
2018-12-20T07:11:00.000Z,-0.5
2018-12-20T07:16:00.000Z,-0.5
2018-12-20T07:21:00.000Z,-0.5
2018-12-20T07:26:00.000Z,-0.5
2018-12-20T07:31:00.000Z,-0.5
2018-12-20T07:36:00.000Z,-0.5
2018-12-20T07:41:00.000Z,-0.4
2018-12-20T07:46:00.000Z,-0.4
2018-12-20T07:51:00.000Z,-0.4
2018-12-20T07:56:00.000Z,-0.5
2018-12-20T08:01:00.000Z,-0.5
2018-12-20T08:06:00.000Z,-0.6
2018-12-20T08:11:00.000Z,-0.6
2018-12-20T08:16:00.000Z,-0.5
2018-12-20T08:21:00.000Z,-0.5
2018-12-20T08:26:00.000Z,-0.4
2018-12-20T08:31:00.000Z,-0.4
2018-12-20T08:36:00.000Z,-0.4
2018-12-20T08:41:00.000Z,-0.3
2018-12-20T08:46:00.000Z,-0.3
2018-12-20T08:51:00.000Z,-0.3
2018-12-20T08:56:00.000Z,-0.3
2018-12-20T09:01:00.000Z,-0.2
2018-12-20T09:06:00.000Z,-0.2
2018-12-20T09:11:00.000Z,-0.2
2018-12-20T09:16:00.000Z,-0.1
2018-12-20T09:22:00.000Z,-0.0
2018-12-20T09:27:00.000Z,0.1
2018-12-20T09:32:00.000Z,0.1
2018-12-20T09:37:00.000Z,0.2
2018-12-20T09:42:00.000Z,0.3
2018-12-20T09:47:00.000Z,0.4
2018-12-20T09:52:00.000Z,0.4
2018-12-20T09:57:00.000Z,0.5
2018-12-20T10:02:00.000Z,0.6
2018-12-20T10:07:00.000Z,0.6
2018-12-20T10:12:00.000Z,0.7
2018-12-20T10:17:00.000Z,0.7
2018-12-20T10:22:00.000Z,0.8
2018-12-20T10:27:00.000Z,0.8
2018-12-20T10:32:00.000Z,0.9
2018-12-20T10:37:00.000Z,0.9
2018-12-20T10:42:00.000Z,0.9
2018-12-20T10:47:00.000Z,1.0
2018-12-20T10:52:00.000Z,1.1
2018-12-20T10:57:00.000Z,1.3
2018-12-20T11:02:00.000Z,1.4
2018-12-20T11:07:00.000Z,1.3
2018-12-20T11:12:00.000Z,1.3
2018-12-20T11:17:00.000Z,1.3
2018-12-20T11:22:00.000Z,1.3
2018-12-20T11:27:00.000Z,1.2
2018-12-20T11:32:00.000Z,1.2
2018-12-20T11:37:00.000Z,1.2
2018-12-20T11:42:00.000Z,1.2
2018-12-20T11:47:00.000Z,1.2
2018-12-20T11:52:00.000Z,1.1
2018-12-20T11:57:00.000Z,1.2
2018-12-20T12:02:00.000Z,1.1
2018-12-20T12:07:00.000Z,1.1
2018-12-20T12:12:00.000Z,1.0
2018-12-20T12:17:00.000Z,0.9
2018-12-20T12:22:00.000Z,0.8
2018-12-20T12:27:00.000Z,0.8
2018-12-20T12:32:00.000Z,0.8
2018-12-20T12:37:00.000Z,0.8
2018-12-20T12:42:00.000Z,0.8
2018-12-20T12:47:00.000Z,0.9
2018-12-20T12:53:00.000Z,0.9
2018-12-20T12:58:00.000Z,1.0
2018-12-20T13:03:00.000Z,1.0
2018-12-20T13:08:00.000Z,1.0
2018-12-20T13:13:00.000Z,0.9
2018-12-20T13:18:00.000Z,0.9
2018-12-20T13:23:00.000Z,0.9
2018-12-20T13:28:00.000Z,1.0
2018-12-20T13:33:00.000Z,1.0
2018-12-20T13:38:00.000Z,1.0
2018-12-20T13:43:00.000Z,1.0
2018-12-20T13:48:00.000Z,1.0
2018-12-20T13:53:00.000Z,1.1
2018-12-20T13:58:00.000Z,1.1
2018-12-20T14:03:00.000Z,1.1
2018-12-20T14:08:00.000Z,1.2
2018-12-20T14:13:00.000Z,1.2
2018-12-20T14:18:00.000Z,1.2
2018-12-20T14:23:00.000Z,1.1
2018-12-20T14:28:00.000Z,1.1
2018-12-20T14:33:00.000Z,1.1
2018-12-20T14:38:00.000Z,1.1
2018-12-20T14:43:00.000Z,1.1
2018-12-20T14:48:00.000Z,1.1
2018-12-20T14:53:00.000Z,1.1
2018-12-20T14:58:00.000Z,1.0
2018-12-20T15:03:00.000Z,1.0
2018-12-20T15:08:00.000Z,0.9
2018-12-20T15:13:00.000Z,0.8
2018-12-20T15:18:00.000Z,0.7
2018-12-20T15:23:00.000Z,0.7
2018-12-20T15:28:00.000Z,0.8
2018-12-20T15:33:00.000Z,0.7
2018-12-20T15:38:00.000Z,0.5
2018-12-20T15:43:00.000Z,0.5
2018-12-20T15:48:00.000Z,0.4
2018-12-20T15:53:00.000Z,0.4
2018-12-20T15:58:00.000Z,0.4
2018-12-20T16:03:00.000Z,0.4
2018-12-20T16:08:00.000Z,0.4
2018-12-20T16:14:00.000Z,0.3
2018-12-20T16:19:00.000Z,0.3
2018-12-20T16:24:00.000Z,0.3
2018-12-20T16:29:00.000Z,0.3
2018-12-20T16:34:00.000Z,0.4
2018-12-20T16:39:00.000Z,0.4
2018-12-20T16:44:00.000Z,0.5
2018-12-20T16:49:00.000Z,0.5
2018-12-20T16:54:00.000Z,0.5
2018-12-20T16:59:00.000Z,0.5
2018-12-20T17:04:00.000Z,0.6
2018-12-20T17:09:00.000Z,0.6
2018-12-20T17:14:00.000Z,0.7
2018-12-20T17:19:00.000Z,0.7
2018-12-20T17:24:00.000Z,0.8
2018-12-20T17:29:00.000Z,0.8
2018-12-20T17:34:00.000Z,0.9
2018-12-20T17:39:00.000Z,1.0
2018-12-20T17:44:00.000Z,0.9
2018-12-20T17:49:00.000Z,1.0
2018-12-20T17:54:00.000Z,1.0
2018-12-20T17:59:00.000Z,1.0
2018-12-20T18:04:00.000Z,0.9
2018-12-20T18:09:00.000Z,0.9
2018-12-20T18:14:00.000Z,0.8
2018-12-20T18:19:00.000Z,0.7
2018-12-20T18:24:00.000Z,0.7
2018-12-20T18:29:00.000Z,0.7
2018-12-20T18:34:00.000Z,0.6
2018-12-20T18:39:00.000Z,0.6
2018-12-20T18:44:00.000Z,0.7
2018-12-20T18:49:00.000Z,0.7
2018-12-20T18:54:00.000Z,0.7
2018-12-20T18:59:00.000Z,0.7
2018-12-20T19:04:00.000Z,0.6
2018-12-20T19:09:00.000Z,0.6
2018-12-20T19:14:00.000Z,0.5
2018-12-20T19:19:00.000Z,0.5
2018-12-20T19:24:00.000Z,0.4
2018-12-20T19:29:00.000Z,0.5
2018-12-20T19:34:00.000Z,0.7
2018-12-20T19:39:00.000Z,0.7
2018-12-20T19:45:00.000Z,0.8
2018-12-20T19:50:00.000Z,0.8
2018-12-20T19:55:00.000Z,0.8
2018-12-20T20:00:00.000Z,0.8
2018-12-20T20:05:00.000Z,0.8
2018-12-20T20:10:00.000Z,0.7
2018-12-20T20:15:00.000Z,0.7
2018-12-20T20:20:00.000Z,0.7
2018-12-20T20:25:00.000Z,0.7
2018-12-20T20:30:00.000Z,0.7
2018-12-20T20:35:00.000Z,0.8
2018-12-20T20:40:00.000Z,0.8
2018-12-20T20:45:00.000Z,0.8
2018-12-20T20:50:00.000Z,0.7
2018-12-20T20:55:00.000Z,0.7
2018-12-20T21:00:00.000Z,0.6
2018-12-20T21:05:00.000Z,0.5
2018-12-20T21:10:00.000Z,0.4
2018-12-20T21:15:00.000Z,0.3
2018-12-20T21:20:00.000Z,0.3
2018-12-20T21:25:00.000Z,0.3
2018-12-20T21:30:00.000Z,0.4
2018-12-20T21:35:00.000Z,0.4
2018-12-20T21:40:00.000Z,0.5
2018-12-20T21:45:00.000Z,0.5
2018-12-20T21:50:00.000Z,0.6
2018-12-20T21:55:00.000Z,0.7
2018-12-20T22:00:00.000Z,0.7
2018-12-20T22:05:00.000Z,0.7
2018-12-20T22:10:00.000Z,0.7
2018-12-20T22:15:00.000Z,0.7
2018-12-20T22:20:00.000Z,0.7
2018-12-20T22:25:00.000Z,0.6
2018-12-20T22:30:00.000Z,0.6
2018-12-20T22:35:00.000Z,0.6
2018-12-20T22:40:00.000Z,0.7
2018-12-20T22:45:00.000Z,0.7
2018-12-20T22:50:00.000Z,0.5
2018-12-20T22:55:00.000Z,0.3
2018-12-20T23:00:00.000Z,0.2
2018-12-20T23:05:00.000Z,0.1
2018-12-20T23:10:00.000Z,0.2
2018-12-20T23:15:00.000Z,0.2
2018-12-20T23:21:00.000Z,0.2
2018-12-20T23:26:00.000Z,0.3
2018-12-20T23:31:00.000Z,0.2
2018-12-20T23:36:00.000Z,0.1
2018-12-20T23:41:00.000Z,0.1
2018-12-20T23:46:00.000Z,0.1
2018-12-20T23:51:00.000Z,-0.0
2018-12-20T23:56:00.000Z,0.0
